Albuquerque International Sunport Airport
KABQ : rendu visible

Aérodrome :











RETROUVEZ-NOUS SUR...

 
LOGIN :

S'inscrire | Disclaimer

   EN    FR    IT 

 









Légende :    VFR   VFR Marginal   IFR   IFR Intensif   IFR Très Intensif
Visi : 
Plafond : 
>= 8 km
>= 3000ft
5 à 8 km
1000 à 3000 ft
1500m à 5 km
500 à 1000 ft
800 à 1500m
200 à 500 ft
< 800m
< 200 ft
Symboles :   Orages  Brouillard  Fortes neiges  Fortes précipitations  Vent > 20 kt






- Altitude de l'aérodrome : 5355 ft
- Code IATA : ABQ


KABQ - Albuquerque International Sunport

DERNIER METAR :
  • 270452Z 33010KT 10SM FEW100 FEW250 24/M08 A3003 RMK AO2 SLP091 T02391083

METARs EXPIRÉS :
  • 270352Z 33007KT 10SM FEW100 SCT250 24/M09 A3002 RMK AO2 SLP089 T02441089
  • 270252Z 31010KT 10SM FEW100 BKN250 26/M07 A3001 RMK AO2 SLP087 T02561072 53005

TAF KABQ
Valide du 27 à 00h jusqu'au 28 à 00h UTC


262333Z 2700/2724 33010G18KT P6SM SCT100
FM270200 34007KT P6SM FEW100
FM270600 06007KT P6SM SKC
FM271800 31008KT P6SM SCT250
FIR KZAB / Amérique du Nord



MET'MAP, la Météo Aéronautique d'un coup d'oeil ! - Copyright ORBIFLY Décembre 2007 - Disclaimer

ORBIFLY MET'MAP TEAM :

Programmation & Développement : Alexandra Zaïnal
Sur une idée originale de : Baudouin d'Aumeries
Assistance à la programmation : Marc-Olivier Méhu
Soutien technique & logistique : Manuel Goepfert

Contact : metmap@orbifly.com




SOURCES & CREDITS :

   NOAA       Earth
Advisory